Flight Track Log - Related Links

Times and Time Zones

All times are in EDT time to prevent confusion due to time zone crossing. See the FLG3721 flight status page for this flight to view local times or setup timezone preferences in your user account.

Time Position Orientation Groundspeed Altitude Reporting Facility
EDT Latitude Longitude Course Direction KTS MPH feet Rate Location/Type
Wed 01:53:02 PM 42.2292 -83.3342 102° East 153 176 1,300  Level Cleveland Center
Wed 01:53:57 PM 42.2636 -83.2964 39° Northeast 201 231 2,900 2,017 Climbing Cleveland Center
Wed 01:54:58 PM 42.3047 -83.2308 50° Northeast 258 297 5,200 2,656 Climbing Cleveland Center
Wed 01:55:59 PM 42.2711 -83.1481 119° Southeast 278 320 8,300 2,764 Climbing Cleveland Center
Wed 01:56:00 PM 42.1210 -82.7630 114° Southeast  Level FlightAware Approximate
Wed 01:57:00 PM 42.1030 -82.6135 98° East  Level FlightAware Approximate
Wed 01:58:00 PM 42.0833 -82.4666 102° East  Level FlightAware Approximate
Wed 01:58:09 PM 42.1964 -82.9319 115° Southeast 297 342 14,000  Level Cleveland Center
Wed 01:59:09 PM 42.1694 -82.8217 108° East 302 348 16,200 1,600 Climbing Cleveland Center
Wed 02:00:09 PM 42.1386 -82.6972 108° East 323 372 17,200 1,000 Climbing Cleveland Center
Wed 02:01:09 PM 42.1075 -82.5647 108° East 345 397 18,200 1,200 Climbing Cleveland Center
Wed 02:02:09 PM 42.0806 -82.4267 105° East 366 421 19,600 1,350 Climbing Cleveland Center
Wed 02:03:09 PM 42.0578 -82.2892 103° East 378 435 20,900 1,300 Climbing Cleveland Center
Wed 02:04:09 PM 42.0369 -82.1486 101° East 378 435 22,200 1,200 Climbing Cleveland Center
Wed 02:05:09 PM 41.9842 -82.0331 122° Southeast 361 415 23,300 1,050 Climbing Cleveland Center
Wed 02:06:09 PM 41.8978 -81.9472 144° Southeast 366 421 24,300 850 Climbing Cleveland Center
Wed 02:07:09 PM 41.8111 -81.8647 145° Southeast 386 444 25,000 350 Climbing Cleveland Center
Wed 02:08:09 PM 41.7264 -81.7850 145° Southeast 399 459 25,000  Level Cleveland Center
Wed 02:09:09 PM 41.6314 -81.6944 145° Southeast 412 474 25,000  Level Cleveland Center
Wed 02:10:09 PM 41.5344 -81.6011 144° Southeast 430 495 25,000  Level Cleveland Center
Wed 02:11:09 PM 41.4414 -81.5139 145° Southeast 415 478 25,000  Level Cleveland Center
Wed 02:12:09 PM 41.3442 -81.4183 144° Southeast 409 471 25,000  Level Cleveland Center
Wed 02:13:09 PM 41.2550 -81.3400 147° Southeast 397 457 25,000  Level Cleveland Center
Wed 02:14:09 PM 41.1658 -81.2561 145° Southeast 397 457 25,000  Level Cleveland Center
Wed 02:15:09 PM 41.0619 -81.2111 162° South 397 457 25,000  Level Cleveland Center
Wed 02:16:09 PM 40.9450 -81.2372 190° South 409 471 25,000 -400 Level Cleveland Center
Wed 02:17:09 PM 40.8386 -81.2611 190° South 432 497 24,200 -900 Descending Cleveland Center
Wed 02:18:09 PM 40.7153 -81.2844 188° South 443 510 23,200 -1,000 Descending Cleveland Center
Wed 02:19:09 PM 40.5964 -81.3078 188° South 443 510 22,200 -600 Descending Cleveland Center
Wed 02:20:09 PM 40.4836 -81.3311 189° South 432 497 22,000 -100 Descending Cleveland Center
Wed 02:21:09 PM 40.3750 -81.3569 190° South 419 482 22,000  Level Cleveland Center
Wed 02:22:09 PM 40.2686 -81.3775 188° South 407 468 22,000  Level Cleveland Center
Wed 02:24:11 PM 40.0253 -81.4283 189° South 431 496 22,000  Level Indianapolis Center
Wed 02:25:12 PM 39.9111 -81.4536 190° South 439 505 22,000  Level Indianapolis Center
Wed 02:26:14 PM 39.7664 -81.4831 189° South 446 513 22,000  Level Indianapolis Center
Wed 02:27:16 PM 39.6469 -81.5072 189° South 451 519 22,000  Level Indianapolis Center
Wed 02:28:18 PM 39.5214 -81.5333 189° South 456 525 22,000  Level Indianapolis Center
Wed 02:29:20 PM 39.3994 -81.5586 189° South 445 512 22,000 -484 Level Indianapolis Center
Wed 02:30:22 PM 39.2814 -81.5831 189° South 431 496 21,000 -1,790 Descending Indianapolis Center
Wed 02:31:24 PM 39.1464 -81.6103 189° South 409 471 18,300 -2,341 Descending Indianapolis Center
Wed 02:32:25 PM 39.0378 -81.6317 189° South 398 458 16,200 -2,000 Descending Indianapolis Center
Wed 02:33:27 PM 38.9342 -81.6522 189° South 378 435 14,200 -1,935 Descending Indianapolis Center
Wed 02:34:29 PM 38.8356 -81.6681 187° South 362 417 12,200 -1,597 Descending Indianapolis Center
Wed 02:35:31 PM 38.7583 -81.5922 143° Southeast 359 413 10,900 -1,645 Descending Indianapolis Center
Wed 02:36:33 PM 38.6856 -81.5092 138° Southeast 326 375 8,800 -2,468 Descending Indianapolis Center
Wed 02:37:35 PM 38.6175 -81.4700 156° South 286 329 5,800 -2,516 Descending Indianapolis Center
Wed 02:38:37 PM 38.5478 -81.4256 153° Southeast 279 321 3,600 -1,403 Descending Indianapolis Center
Wed 02:39:39 PM 38.4872 -81.4286 182° South 258 297 2,900 -339 Descending Indianapolis Center
Wed 02:40:41 PM 38.4542 -81.4825 232° Southwest 214 246 2,900 -339 Level Indianapolis Center
Wed 02:41:43 PM 38.4253 -81.5219 227° Southwest 179 206 2,200 -677 Descending Indianapolis Center

Login

Don't have an account? Register now (free) for customized features, flight alerts, and more!